^^
Station Historical Data
Daily Summary for May 5, 2017 Units:  Both    English   Metric
« Previous Day
Next Day »
Daily Weekly Monthly Yearly Custom
  High: Low: Average:
Temperature: 78.3 °F /  25.7 °C 49.6 °F /  9.8 °C 63 °F /  17.2 °C
Dew Point: 47.8 °F /  8.8 °C 42.1 °F /  5.6 °C 44.8 °F /  7.1 °C
Humidity: 76% 29% 54%
Wind Speed: 8.1mph /  13km/h - 0.9mph /  1.4km/h
Wind Gust: 10.0mph /  16.1km/h - -
Wind- - SSE
Pressure: 30.08 in /  1018.5 hPa 29.96 in /  1014.4 hPa -
Precipitation: 0.00 in /  0 mm    
Historical Graphs
 
 
Tabular Data for May 5, 2017
Time Temperature Dew Point Pressure Wind Wind Speed Wind Gust Humidity Rainfall Rate (Hourly) solar Conditions
00:01 54.0 °F /  12.2 °C 44.8 °F /  7.1 °C 30.01in /  1016.1hPa Calm   1.0mph /  1.6km/h 71% 0.00in /  0mm 0.0 W/m2
00:08 54.0 °F /  12.2 °C 44.4 °F /  6.9 °C 30.01in /  1016.1hPa Calm   1.0mph /  1.6km/h 70% 0.00in /  0mm 0.0 W/m2
00:14 54.0 °F /  12.2 °C 44.4 °F /  6.9 °C 30.01in /  1016.1hPa Calm   1.0mph /  1.6km/h 70% 0.00in /  0mm 0.0 W/m2
00:20 54.0 °F /  12.2 °C 44.4 °F /  6.9 °C 30.01in /  1016.1hPa Calm     70% 0.00in /  0mm 0.0 W/m2
00:26 53.8 °F /  12.1 °C 44.2 °F /  6.8 °C 30.01in /  1016.1hPa Calm   2.0mph /  3.2km/h 70% 0.00in /  0mm 0.0 W/m2
00:32 53.8 °F /  12.1 °C 44.6 °F /  7 °C 30.01in /  1016.1hPa East 0.9mph /  1.4km/h 1.0mph /  1.6km/h 71% 0.00in /  0mm 0.0 W/m2
00:38 53.8 °F /  12.1 °C 44.6 °F /  7 °C 30.01in /  1016.1hPa Calm   3.0mph /  4.8km/h 71% 0.00in /  0mm 0.0 W/m2
00:45 53.4 °F /  11.9 °C 44.2 °F /  6.8 °C 30.01in /  1016.1hPa Calm   2.0mph /  3.2km/h 71% 0.00in /  0mm 0.0 W/m2
00:50 53.4 °F /  11.9 °C 44.2 °F /  6.8 °C 30.01in /  1016.1hPa Calm   1.0mph /  1.6km/h 71% 0.00in /  0mm 0.0 W/m2
00:57 53.2 °F /  11.8 °C 44.4 °F /  6.9 °C 30.01in /  1016.1hPa Calm     72% 0.00in /  0mm 0.0 W/m2
01:03 53.2 °F /  11.8 °C 44.4 °F /  6.9 °C 30.01in /  1016.1hPa Calm     72% 0.00in /  0mm 0.0 W/m2
01:09 53.1 °F /  11.7 °C 44.2 °F /  6.8 °C 30.00in /  1015.8hPa Calm     72% 0.00in /  0mm 0.0 W/m2
01:15 53.1 °F /  11.7 °C 44.2 °F /  6.8 °C 30.01in /  1016.1hPa Calm     72% 0.00in /  0mm 0.0 W/m2
01:23 52.7 °F /  11.5 °C 44.2 °F /  6.8 °C 30.01in /  1016.1hPa Calm     73% 0.00in /  0mm 0.0 W/m2
01:29 52.5 °F /  11.4 °C 44.1 °F /  6.7 °C 30.00in /  1015.8hPa Calm   1.0mph /  1.6km/h 73% 0.00in /  0mm 0.0 W/m2
01:37 52.3 °F /  11.3 °C 43.9 °F /  6.6 °C 30.00in /  1015.8hPa Calm     73% 0.00in /  0mm 0.0 W/m2
01:43 52.2 °F /  11.2 °C 44.1 °F /  6.7 °C 30.00in /  1015.8hPa Calm     74% 0.00in /  0mm 0.0 W/m2
01:49 52.0 °F /  11.1 °C 43.9 °F /  6.6 °C 29.99in /  1015.5hPa Calm     74% 0.00in /  0mm 0.0 W/m2
01:55 51.8 °F /  11 °C 43.7 °F /  6.5 °C 29.99in /  1015.5hPa Calm   1.0mph /  1.6km/h 74% 0.00in /  0mm 0.0 W/m2
02:01 52.0 °F /  11.1 °C 43.9 °F /  6.6 °C 29.99in /  1015.5hPa Calm   2.0mph /  3.2km/h 74% 0.00in /  0mm 0.0 W/m2
02:08 52.0 °F /  11.1 °C 43.5 °F /  6.4 °C 29.98in /  1015.1hPa Calm   3.0mph /  4.8km/h 73% 0.00in /  0mm 0.0 W/m2
02:14 52.2 °F /  11.2 °C 43.7 °F /  6.5 °C 29.98in /  1015.1hPa Calm   1.0mph /  1.6km/h 73% 0.00in /  0mm 0.0 W/m2
02:20 52.2 °F /  11.2 °C 43.7 °F /  6.5 °C 29.99in /  1015.5hPa Calm     73% 0.00in /  0mm 0.0 W/m2
02:26 52.2 °F /  11.2 °C 43.7 °F /  6.5 °C 29.98in /  1015.1hPa Calm     73% 0.00in /  0mm 0.0 W/m2
02:32 52.0 °F /  11.1 °C 43.9 °F /  6.6 °C 29.99in /  1015.5hPa NE 0.9mph /  1.4km/h 5.0mph /  8km/h 74% 0.00in /  0mm 0.0 W/m2
02:38 52.0 °F /  11.1 °C 43.9 °F /  6.6 °C 29.99in /  1015.5hPa ENE 2.9mph /  4.7km/h 4.0mph /  6.4km/h 74% 0.00in /  0mm 0.0 W/m2
02:44 51.8 °F /  11 °C 43.7 °F /  6.5 °C 29.99in /  1015.5hPa Calm   3.0mph /  4.8km/h 74% 0.00in /  0mm 0.0 W/m2
02:50 51.6 °F /  10.9 °C 43.5 °F /  6.4 °C 29.99in /  1015.5hPa ENE 2.0mph /  3.2km/h 2.0mph /  3.2km/h 74% 0.00in /  0mm 0.0 W/m2
02:56 51.4 °F /  10.8 °C 43.5 °F /  6.4 °C 29.98in /  1015.1hPa Calm   3.0mph /  4.8km/h 74% 0.00in /  0mm 0.0 W/m2
03:02 51.4 °F /  10.8 °C 43.5 °F /  6.4 °C 29.98in /  1015.1hPa Calm   2.0mph /  3.2km/h 74% 0.00in /  0mm 0.0 W/m2
03:08 51.4 °F /  10.8 °C 43.5 °F /  6.4 °C 29.99in /  1015.5hPa NE 0.9mph /  1.4km/h 2.0mph /  3.2km/h 74% 0.00in /  0mm 0.0 W/m2
03:14 51.4 °F /  10.8 °C 43.5 °F /  6.4 °C 29.99in /  1015.5hPa Calm   2.0mph /  3.2km/h 74% 0.00in /  0mm 0.0 W/m2
03:20 51.4 °F /  10.8 °C 43.5 °F /  6.4 °C 29.99in /  1015.5hPa Calm   3.0mph /  4.8km/h 74% 0.00in /  0mm 0.0 W/m2
03:26 51.4 °F /  10.8 °C 43.5 °F /  6.4 °C 29.99in /  1015.5hPa Calm   1.0mph /  1.6km/h 74% 0.00in /  0mm 0.0 W/m2
03:32 51.3 °F /  10.7 °C 43.3 °F /  6.3 °C 29.99in /  1015.5hPa Calm   3.0mph /  4.8km/h 74% 0.00in /  0mm 0.0 W/m2
03:38 51.3 °F /  10.7 °C 43.3 °F /  6.3 °C 29.99in /  1015.5hPa Calm   2.0mph /  3.2km/h 74% 0.00in /  0mm 0.0 W/m2
03:44 51.3 °F /  10.7 °C 43.5 °F /  6.4 °C 29.99in /  1015.5hPa NE 0.9mph /  1.4km/h 1.0mph /  1.6km/h 75% 0.00in /  0mm 0.0 W/m2
03:50 51.1 °F /  10.6 °C 43.2 °F /  6.2 °C 29.99in /  1015.5hPa NE 2.9mph /  4.7km/h 3.0mph /  4.8km/h 74% 0.00in /  0mm 0.0 W/m2
03:56 51.1 °F /  10.6 °C 43.2 °F /  6.2 °C 29.99in /  1015.5hPa Calm   2.0mph /  3.2km/h 74% 0.00in /  0mm 0.0 W/m2
04:02 51.1 °F /  10.6 °C 43.5 °F /  6.4 °C 29.99in /  1015.5hPa Calm   2.0mph /  3.2km/h 75% 0.00in /  0mm 0.0 W/m2
04:08 51.1 °F /  10.6 °C 43.2 °F /  6.2 °C 29.99in /  1015.5hPa Calm   2.0mph /  3.2km/h 74% 0.00in /  0mm 0.0 W/m2
04:14 51.1 °F /  10.6 °C 43.5 °F /  6.4 °C 30.00in /  1015.8hPa ENE 2.0mph /  3.2km/h 4.0mph /  6.4km/h 75% 0.00in /  0mm 0.0 W/m2
04:20 50.9 °F /  10.5 °C 43.3 °F /  6.3 °C 30.00in /  1015.8hPa ENE 0.9mph /  1.4km/h 2.0mph /  3.2km/h 75% 0.00in /  0mm 0.0 W/m2
04:26 50.9 °F /  10.5 °C 43.3 °F /  6.3 °C 30.00in /  1015.8hPa East 0.9mph /  1.4km/h 3.0mph /  4.8km/h 75% 0.00in /  0mm 0.0 W/m2
04:32 50.9 °F /  10.5 °C 43.3 °F /  6.3 °C 30.00in /  1015.8hPa Calm   2.0mph /  3.2km/h 75% 0.00in /  0mm 0.0 W/m2
04:38 50.7 °F /  10.4 °C 43.2 °F /  6.2 °C 30.00in /  1015.8hPa East 2.0mph /  3.2km/h 4.0mph /  6.4km/h 75% 0.00in /  0mm 0.0 W/m2
04:44 50.7 °F /  10.4 °C 43.2 °F /  6.2 °C 30.01in /  1016.1hPa ENE 0.9mph /  1.4km/h 2.0mph /  3.2km/h 75% 0.00in /  0mm 0.0 W/m2
04:50 50.7 °F /  10.4 °C 43.2 °F /  6.2 °C 30.01in /  1016.1hPa ENE 0.9mph /  1.4km/h 5.0mph /  8km/h 75% 0.00in /  0mm 0.0 W/m2
04:56 50.7 °F /  10.4 °C 43.2 °F /  6.2 °C 30.01in /  1016.1hPa Calm   3.0mph /  4.8km/h 75% 0.00in /  0mm 0.0 W/m2
05:02 50.7 °F /  10.4 °C 43.2 °F /  6.2 °C 30.01in /  1016.1hPa Calm   2.0mph /  3.2km/h 75% 0.00in /  0mm 0.0 W/m2
05:08 50.7 °F /  10.4 °C 42.8 °F /  6 °C 30.01in /  1016.1hPa Calm   3.0mph /  4.8km/h 74% 0.00in /  0mm 0.0 W/m2
05:14 50.7 °F /  10.4 °C 43.2 °F /  6.2 °C 30.01in /  1016.1hPa Calm   2.0mph /  3.2km/h 75% 0.00in /  0mm 0.0 W/m2
05:21 50.7 °F /  10.4 °C 43.2 °F /  6.2 °C 30.01in /  1016.1hPa ENE 0.9mph /  1.4km/h 2.0mph /  3.2km/h 75% 0.00in /  0mm 0.0 W/m2
05:27 50.5 °F /  10.3 °C 43.0 °F /  6.1 °C 30.01in /  1016.1hPa Calm   2.0mph /  3.2km/h 75% 0.00in /  0mm 0.0 W/m2
05:33 50.5 °F /  10.3 °C 43.0 °F /  6.1 °C 30.02in /  1016.5hPa Calm   3.0mph /  4.8km/h 75% 0.00in /  0mm 0.0 W/m2
05:39 50.5 °F /  10.3 °C 43.0 °F /  6.1 °C 30.02in /  1016.5hPa ENE 0.9mph /  1.4km/h 1.0mph /  1.6km/h 75% 0.00in /  0mm 0.0 W/m2
05:45 50.4 °F /  10.2 °C 42.8 °F /  6 °C 30.02in /  1016.5hPa Calm   2.0mph /  3.2km/h 75% 0.00in /  0mm 0.0 W/m2
05:51 50.4 °F /  10.2 °C 42.8 °F /  6 °C 30.02in /  1016.5hPa ENE 2.9mph /  4.7km/h 3.0mph /  4.8km/h 75% 0.00in /  0mm 0.0 W/m2
05:57 50.2 °F /  10.1 °C 42.6 °F /  5.9 °C 30.02in /  1016.5hPa Calm   2.0mph /  3.2km/h 75% 0.00in /  0mm 0.0 W/m2
06:03 50.2 °F /  10.1 °C 42.6 °F /  5.9 °C 30.02in /  1016.5hPa Calm   1.0mph /  1.6km/h 75% 0.00in /  0mm 0.0 W/m2
06:09 49.8 °F /  9.9 °C 42.3 °F /  5.7 °C 30.03in /  1016.8hPa Calm   2.0mph /  3.2km/h 75% 0.00in /  0mm 0.0 W/m2
06:15 49.8 °F /  9.9 °C 42.3 °F /  5.7 °C 30.03in /  1016.8hPa Calm     75% 0.00in /  0mm 5.0 W/m2
06:21 49.6 °F /  9.8 °C 42.1 °F /  5.6 °C 30.03in /  1016.8hPa Calm   1.0mph /  1.6km/h 75% 0.00in /  0mm 7.0 W/m2
06:28 49.6 °F /  9.8 °C 42.1 °F /  5.6 °C 30.03in /  1016.8hPa East 2.0mph /  3.2km/h 3.0mph /  4.8km/h 75% 0.00in /  0mm 9.0 W/m2
06:34 49.6 °F /  9.8 °C 42.1 °F /  5.6 °C 30.03in /  1016.8hPa ENE 0.9mph /  1.4km/h 4.0mph /  6.4km/h 75% 0.00in /  0mm 11.0 W/m2
06:39 49.6 °F /  9.8 °C 42.1 °F /  5.6 °C 30.03in /  1016.8hPa NE 0.9mph /  1.4km/h 2.0mph /  3.2km/h 75% 0.00in /  0mm 12.0 W/m2
06:48 49.8 °F /  9.9 °C 42.3 °F /  5.7 °C 30.04in /  1017.2hPa NE 0.9mph /  1.4km/h 2.0mph /  3.2km/h 75% 0.00in /  0mm 14.0 W/m2
06:57 50.2 °F /  10.1 °C 42.6 °F /  5.9 °C 30.05in /  1017.5hPa NNE 0.9mph /  1.4km/h 3.0mph /  4.8km/h 75% 0.00in /  0mm 16.0 W/m2
07:03 50.4 °F /  10.2 °C 42.8 °F /  6 °C 30.05in /  1017.5hPa Calm   1.0mph /  1.6km/h 75% 0.00in /  0mm 18.0 W/m2
07:09 50.5 °F /  10.3 °C 43.0 °F /  6.1 °C 30.05in /  1017.5hPa East 2.0mph /  3.2km/h 2.0mph /  3.2km/h 75% 0.00in /  0mm 19.0 W/m2
07:16 50.7 °F /  10.4 °C 43.2 °F /  6.2 °C 30.05in /  1017.5hPa Calm   1.0mph /  1.6km/h 75% 0.00in /  0mm 21.0 W/m2
07:22 51.3 °F /  10.7 °C 43.9 °F /  6.6 °C 30.05in /  1017.5hPa Calm     76% 0.00in /  0mm 21.0 W/m2
07:28 51.6 °F /  10.9 °C 44.2 °F /  6.8 °C 30.06in /  1017.8hPa ENE 2.0mph /  3.2km/h 2.0mph /  3.2km/h 76% 0.00in /  0mm 23.0 W/m2
07:34 52.2 °F /  11.2 °C 44.4 °F /  6.9 °C 30.06in /  1017.8hPa Calm   2.0mph /  3.2km/h 75% 0.00in /  0mm 23.0 W/m2
07:40 52.9 °F /  11.6 °C 44.8 °F /  7.1 °C 30.06in /  1017.8hPa Calm   2.0mph /  3.2km/h 74% 0.00in /  0mm 25.0 W/m2
07:46 53.8 °F /  12.1 °C 45.0 °F /  7.2 °C 30.06in /  1017.8hPa Calm     72% 0.00in /  0mm 26.0 W/m2
07:53 54.7 °F /  12.6 °C 44.8 °F /  7.1 °C 30.06in /  1017.8hPa East 0.9mph /  1.4km/h 1.0mph /  1.6km/h 69% 0.00in /  0mm 26.0 W/m2
07:59 55.8 °F /  13.2 °C 44.2 °F /  6.8 °C 30.06in /  1017.8hPa ESE 2.0mph /  3.2km/h 3.0mph /  4.8km/h 65% 0.00in /  0mm 26.0 W/m2
08:05 57.0 °F /  13.9 °C 44.1 °F /  6.7 °C 30.06in /  1017.8hPa NE 0.9mph /  1.4km/h 3.0mph /  4.8km/h 62% 0.00in /  0mm 28.0 W/m2
08:11 58.3 °F /  14.6 °C 44.1 °F /  6.7 °C 30.06in /  1017.8hPa Calm   1.0mph /  1.6km/h 59% 0.00in /  0mm 30.0 W/m2
08:17 59.5 °F /  15.3 °C 42.8 °F /  6 °C 30.07in /  1018.2hPa Calm     54% 0.00in /  0mm 295.0 W/m2
08:23 60.4 °F /  15.8 °C 43.7 °F /  6.5 °C 30.07in /  1018.2hPa NNW 2.0mph /  3.2km/h 3.0mph /  4.8km/h 54% 0.00in /  0mm 438.0 W/m2
08:29 62.2 °F /  16.8 °C 43.9 °F /  6.6 °C 30.07in /  1018.2hPa Calm   1.0mph /  1.6km/h 51% 0.00in /  0mm 459.0 W/m2
08:36 63.1 °F /  17.3 °C 44.8 °F /  7.1 °C 30.07in /  1018.2hPa Calm     51% 0.00in /  0mm 476.0 W/m2
08:42 64.6 °F /  18.1 °C 44.4 °F /  6.9 °C 30.07in /  1018.2hPa NNE 0.9mph /  1.4km/h 3.0mph /  4.8km/h 48% 0.00in /  0mm 499.0 W/m2
08:48 65.3 °F /  18.5 °C 44.1 °F /  6.7 °C 30.07in /  1018.2hPa NNW 0.9mph /  1.4km/h 3.0mph /  4.8km/h 46% 0.00in /  0mm 519.0 W/m2
08:54 66.6 °F /  19.2 °C 45.1 °F /  7.3 °C 30.07in /  1018.2hPa NNE 4.0mph /  6.4km/h 4.0mph /  6.4km/h 46% 0.00in /  0mm 536.0 W/m2
09:00 67.5 °F /  19.7 °C 44.2 °F /  6.8 °C 30.07in /  1018.2hPa Calm   3.0mph /  4.8km/h 43% 0.00in /  0mm 552.0 W/m2
09:06 68.0 °F /  20 °C 44.6 °F /  7 °C 30.08in /  1018.5hPa NNW 0.9mph /  1.4km/h 1.0mph /  1.6km/h 43% 0.00in /  0mm 568.0 W/m2
09:12 68.7 °F /  20.4 °C 44.8 °F /  7.1 °C 30.07in /  1018.2hPa Calm   3.0mph /  4.8km/h 42% 0.00in /  0mm 585.0 W/m2
09:19 69.3 °F /  20.7 °C 45.1 °F /  7.3 °C 30.07in /  1018.2hPa Calm     42% 0.00in /  0mm 603.0 W/m2
09:25 70.0 °F /  21.1 °C 45.1 °F /  7.3 °C 30.07in /  1018.2hPa NNW 2.0mph /  3.2km/h 3.0mph /  4.8km/h 41% 0.00in /  0mm 615.0 W/m2
09:31 70.2 °F /  21.2 °C 44.8 °F /  7.1 °C 30.07in /  1018.2hPa Calm   5.0mph /  8km/h 40% 0.00in /  0mm 631.0 W/m2
09:37 70.2 °F /  21.2 °C 44.8 °F /  7.1 °C 30.07in /  1018.2hPa North 2.0mph /  3.2km/h 5.0mph /  8km/h 40% 0.00in /  0mm 645.0 W/m2
09:43 70.2 °F /  21.2 °C 45.3 °F /  7.4 °C 30.07in /  1018.2hPa Calm   1.0mph /  1.6km/h 41% 0.00in /  0mm 656.0 W/m2
09:49 70.2 °F /  21.2 °C 44.8 °F /  7.1 °C 30.07in /  1018.2hPa Calm   5.0mph /  8km/h 40% 0.00in /  0mm 670.0 W/m2
09:55 70.3 °F /  21.3 °C 45.0 °F /  7.2 °C 30.07in /  1018.2hPa NNE 2.0mph /  3.2km/h 3.0mph /  4.8km/h 40% 0.00in /  0mm 679.0 W/m2
10:01 71.1 °F /  21.7 °C 44.8 °F /  7.1 °C 30.06in /  1017.8hPa Calm   4.0mph /  6.4km/h 39% 0.00in /  0mm 693.0 W/m2
10:08 71.1 °F /  21.7 °C 46.2 °F /  7.9 °C 30.06in /  1017.8hPa SW 0.9mph /  1.4km/h 4.0mph /  6.4km/h 41% 0.00in /  0mm 703.0 W/m2
10:14 71.1 °F /  21.7 °C 45.5 °F /  7.5 °C 30.06in /  1017.8hPa NNW 2.9mph /  4.7km/h 3.0mph /  4.8km/h 40% 0.00in /  0mm 715.0 W/m2
10:20 71.8 °F /  22.1 °C 46.2 °F /  7.9 °C 30.06in /  1017.8hPa NNE 6.9mph /  11.1km/h 9.0mph /  14.5km/h 40% 0.00in /  0mm 726.0 W/m2
10:26 72.0 °F /  22.2 °C 45.0 °F /  7.2 °C 30.06in /  1017.8hPa NNW 4.0mph /  6.4km/h 6.0mph /  9.7km/h 38% 0.00in /  0mm 733.0 W/m2
10:32 72.5 °F /  22.5 °C 46.2 °F /  7.9 °C 30.06in /  1017.8hPa Calm   4.0mph /  6.4km/h 39% 0.00in /  0mm 738.0 W/m2
10:38 72.9 °F /  22.7 °C 45.7 °F /  7.6 °C 30.05in /  1017.5hPa Calm   1.0mph /  1.6km/h 38% 0.00in /  0mm 747.0 W/m2
10:46 73.2 °F /  22.9 °C 46.0 °F /  7.8 °C 30.05in /  1017.5hPa North 2.0mph /  3.2km/h 3.0mph /  4.8km/h 38% 0.00in /  0mm 758.0 W/m2
10:52 73.6 °F /  23.1 °C 46.4 °F /  8 °C 30.05in /  1017.5hPa Calm   4.0mph /  6.4km/h 38% 0.00in /  0mm 765.0 W/m2
10:59 73.9 °F /  23.3 °C 46.8 °F /  8.2 °C 30.04in /  1017.2hPa Calm   6.0mph /  9.7km/h 38% 0.00in /  0mm 768.0 W/m2
11:05 74.1 °F /  23.4 °C 46.2 °F /  7.9 °C 30.04in /  1017.2hPa North 2.0mph /  3.2km/h 3.0mph /  4.8km/h 37% 0.00in /  0mm 772.0 W/m2
11:11 74.1 °F /  23.4 °C 45.5 °F /  7.5 °C 30.04in /  1017.2hPa NW 0.9mph /  1.4km/h 7.0mph /  11.3km/h 36% 0.00in /  0mm 777.0 W/m2
11:17 74.3 °F /  23.5 °C 45.7 °F /  7.6 °C 30.03in /  1016.8hPa WNW 2.0mph /  3.2km/h 6.0mph /  9.7km/h 36% 0.00in /  0mm 782.0 W/m2
11:23 73.9 °F /  23.3 °C 45.3 °F /  7.4 °C 30.03in /  1016.8hPa NNW 0.9mph /  1.4km/h 9.0mph /  14.5km/h 36% 0.00in /  0mm 784.0 W/m2
11:30 74.1 °F /  23.4 °C 46.2 °F /  7.9 °C 30.03in /  1016.8hPa SW 0.9mph /  1.4km/h 5.0mph /  8km/h 37% 0.00in /  0mm 786.0 W/m2
11:36 74.1 °F /  23.4 °C 45.5 °F /  7.5 °C 30.03in /  1016.8hPa North 4.9mph /  7.9km/h 7.0mph /  11.3km/h 36% 0.00in /  0mm 788.0 W/m2
11:42 74.1 °F /  23.4 °C 45.5 °F /  7.5 °C 30.02in /  1016.5hPa NW 4.9mph /  7.9km/h 8.0mph /  12.9km/h 36% 0.00in /  0mm 789.0 W/m2
11:48 74.5 °F /  23.6 °C 45.0 °F /  7.2 °C 30.02in /  1016.5hPa NNW 2.9mph /  4.7km/h 7.0mph /  11.3km/h 35% 0.00in /  0mm 795.0 W/m2
11:54 74.3 °F /  23.5 °C 45.7 °F /  7.6 °C 30.02in /  1016.5hPa NW 2.0mph /  3.2km/h 5.0mph /  8km/h 36% 0.00in /  0mm 105.0 W/m2
12:00 73.6 °F /  23.1 °C 45.0 °F /  7.2 °C 30.01in /  1016.1hPa North 8.1mph /  13km/h 8.1mph /  13km/h 36% 0.00in /  0mm 853.0 W/m2
12:06 73.2 °F /  22.9 °C 46.0 °F /  7.8 °C 30.01in /  1016.1hPa Calm   1.0mph /  1.6km/h 38% 0.00in /  0mm 819.0 W/m2
12:12 73.8 °F /  23.2 °C 45.9 °F /  7.7 °C 30.01in /  1016.1hPa Calm   2.0mph /  3.2km/h 37% 0.00in /  0mm 819.0 W/m2
12:18 74.5 °F /  23.6 °C 45.9 °F /  7.7 °C 30.00in /  1015.8hPa NNW 2.0mph /  3.2km/h 7.0mph /  11.3km/h 36% 0.00in /  0mm 812.0 W/m2
12:24 75.2 °F /  24 °C 45.7 °F /  7.6 °C 30.00in /  1015.8hPa North 2.9mph /  4.7km/h 5.0mph /  8km/h 35% 0.00in /  0mm 816.0 W/m2
12:31 75.4 °F /  24.1 °C 45.9 °F /  7.7 °C 30.00in /  1015.8hPa Calm   2.0mph /  3.2km/h 35% 0.00in /  0mm 814.0 W/m2
12:37 75.6 °F /  24.2 °C 46.0 °F /  7.8 °C 29.99in /  1015.5hPa Calm   1.0mph /  1.6km/h 35% 0.00in /  0mm 111.0 W/m2
12:43 74.8 °F /  23.8 °C 45.3 °F /  7.4 °C 29.99in /  1015.5hPa Calm   3.0mph /  4.8km/h 35% 0.00in /  0mm 111.0 W/m2
12:49 74.7 °F /  23.7 °C 45.1 °F /  7.3 °C 29.99in /  1015.5hPa North 6.0mph /  9.7km/h 6.0mph /  9.7km/h 35% 0.00in /  0mm 780.0 W/m2
12:55 74.8 °F /  23.8 °C 45.3 °F /  7.4 °C 29.99in /  1015.5hPa NNW 4.0mph /  6.4km/h 5.0mph /  8km/h 35% 0.00in /  0mm 566.0 W/m2
13:01 74.8 °F /  23.8 °C 44.6 °F /  7 °C 29.99in /  1015.5hPa East 2.9mph /  4.7km/h 5.0mph /  8km/h 34% 0.00in /  0mm 218.0 W/m2
13:07 74.5 °F /  23.6 °C 44.2 °F /  6.8 °C 29.98in /  1015.1hPa Calm   3.0mph /  4.8km/h 34% 0.00in /  0mm 803.0 W/m2
13:13 75.0 °F /  23.9 °C 43.9 °F /  6.6 °C 29.98in /  1015.1hPa NW 8.1mph /  13km/h 10.0mph /  16.1km/h 33% 0.00in /  0mm 775.0 W/m2
13:20 75.6 °F /  24.2 °C 44.4 °F /  6.9 °C 29.98in /  1015.1hPa Calm   2.0mph /  3.2km/h 33% 0.00in /  0mm 775.0 W/m2
13:26 75.7 °F /  24.3 °C 43.7 °F /  6.5 °C 29.98in /  1015.1hPa Calm   8.0mph /  12.9km/h 32% 0.00in /  0mm 754.0 W/m2
13:32 75.4 °F /  24.1 °C 45.1 °F /  7.3 °C 29.98in /  1015.1hPa North 0.9mph /  1.4km/h 2.0mph /  3.2km/h 34% 0.00in /  0mm 83.0 W/m2
13:38 74.8 °F /  23.8 °C 44.6 °F /  7 °C 29.98in /  1015.1hPa Calm   1.0mph /  1.6km/h 34% 0.00in /  0mm 104.0 W/m2
13:44 74.3 °F /  23.5 °C 44.1 °F /  6.7 °C 29.98in /  1015.1hPa WSW 2.0mph /  3.2km/h 3.0mph /  4.8km/h 34% 0.00in /  0mm 719.0 W/m2
13:50 73.9 °F /  23.3 °C 43.9 °F /  6.6 °C 29.97in /  1014.8hPa NNW 2.0mph /  3.2km/h 5.0mph /  8km/h 34% 0.00in /  0mm 111.0 W/m2
13:56 73.8 °F /  23.2 °C 42.1 °F /  5.6 °C 29.97in /  1014.8hPa NE 0.9mph /  1.4km/h 4.0mph /  6.4km/h 32% 0.00in /  0mm 664.0 W/m2
14:02 74.1 °F /  23.4 °C 43.2 °F /  6.2 °C 29.97in /  1014.8hPa ENE 2.0mph /  3.2km/h 3.0mph /  4.8km/h 33% 0.00in /  0mm 657.0 W/m2
14:08 74.7 °F /  23.7 °C 43.7 °F /  6.5 °C 29.97in /  1014.8hPa WSW 0.9mph /  1.4km/h 5.0mph /  8km/h 33% 0.00in /  0mm 670.0 W/m2
14:15 75.0 °F /  23.9 °C 43.9 °F /  6.6 °C 29.97in /  1014.8hPa SE 2.9mph /  4.7km/h 4.0mph /  6.4km/h 33% 0.00in /  0mm 663.0 W/m2
14:21 75.4 °F /  24.1 °C 43.5 °F /  6.4 °C 29.97in /  1014.8hPa Calm     32% 0.00in /  0mm 659.0 W/m2
14:27 75.9 °F /  24.4 °C 43.2 °F /  6.2 °C 29.97in /  1014.8hPa Calm   4.0mph /  6.4km/h 31% 0.00in /  0mm 671.0 W/m2
14:33 76.6 °F /  24.8 °C 44.6 °F /  7 °C 29.97in /  1014.8hPa WSW 2.0mph /  3.2km/h 5.0mph /  8km/h 32% 0.00in /  0mm 671.0 W/m2
14:39 76.8 °F /  24.9 °C 43.0 °F /  6.1 °C 29.96in /  1014.4hPa NNE 2.0mph /  3.2km/h 3.0mph /  4.8km/h 30% 0.00in /  0mm 664.0 W/m2
14:45 77.0 °F /  25 °C 43.2 °F /  6.2 °C 29.96in /  1014.4hPa East 0.9mph /  1.4km/h 2.0mph /  3.2km/h 30% 0.00in /  0mm 661.0 W/m2
14:51 76.8 °F /  24.9 °C 42.1 °F /  5.6 °C 29.96in /  1014.4hPa NNW 2.0mph /  3.2km/h 5.0mph /  8km/h 29% 0.00in /  0mm 656.0 W/m2
14:57 77.4 °F /  25.2 °C 43.5 °F /  6.4 °C 29.96in /  1014.4hPa North 2.9mph /  4.7km/h 5.0mph /  8km/h 30% 0.00in /  0mm 612.0 W/m2
15:03 77.9 °F /  25.5 °C 43.2 °F /  6.2 °C 29.96in /  1014.4hPa NE 0.9mph /  1.4km/h 2.0mph /  3.2km/h 29% 0.00in /  0mm 584.0 W/m2
15:09 78.3 °F /  25.7 °C 44.2 °F /  6.8 °C 29.96in /  1014.4hPa NNW 2.0mph /  3.2km/h 5.0mph /  8km/h 30% 0.00in /  0mm 563.0 W/m2
15:15 77.7 °F /  25.4 °C 44.6 °F /  7 °C 29.96in /  1014.4hPa Calm   4.0mph /  6.4km/h 31% 0.00in /  0mm 366.0 W/m2
15:21 77.4 °F /  25.2 °C 44.4 °F /  6.9 °C 29.96in /  1014.4hPa Calm   4.0mph /  6.4km/h 31% 0.00in /  0mm 308.0 W/m2
15:27 76.5 °F /  24.7 °C 43.5 °F /  6.4 °C 29.96in /  1014.4hPa WNW 2.0mph /  3.2km/h 8.0mph /  12.9km/h 31% 0.00in /  0mm 487.0 W/m2
15:30 76.3 °F /  24.6 °C 42.6 °F /  5.9 °C 29.96in /  1014.4hPa Calm   2.0mph /  3.2km/h 30% 0.00in /  0mm 476.0 W/m2
15:36 75.9 °F /  24.4 °C 44.8 °F /  7.1 °C 29.96in /  1014.4hPa NE 4.9mph /  7.9km/h 7.0mph /  11.3km/h 33% 0.00in /  0mm 455.0 W/m2
15:40 75.9 °F /  24.4 °C 45.5 °F /  7.5 °C 29.96in /  1014.4hPa North 2.9mph /  4.7km/h 6.0mph /  9.7km/h 34% 0.00in /  0mm 429.0 W/m2
15:46 75.6 °F /  24.2 °C 44.4 °F /  6.9 °C 29.96in /  1014.4hPa NE 2.0mph /  3.2km/h 6.0mph /  9.7km/h 33% 0.00in /  0mm 141.0 W/m2
15:52 75.6 °F /  24.2 °C 45.1 °F /  7.3 °C 29.96in /  1014.4hPa Calm   2.0mph /  3.2km/h 34% 0.00in /  0mm 134.0 W/m2
15:58 75.2 °F /  24 °C 44.1 °F /  6.7 °C 29.97in /  1014.8hPa NW 6.9mph /  11.1km/h 7.0mph /  11.3km/h 33% 0.00in /  0mm 125.0 W/m2
16:04 75.0 °F /  23.9 °C 44.8 °F /  7.1 °C 29.97in /  1014.8hPa WSW 4.0mph /  6.4km/h 7.0mph /  11.3km/h 34% 0.00in /  0mm 118.0 W/m2
16:10 74.5 °F /  23.6 °C 43.5 °F /  6.4 °C 29.97in /  1014.8hPa NNE 6.0mph /  9.7km/h 9.0mph /  14.5km/h 33% 0.00in /  0mm 111.0 W/m2
16:16 73.9 °F /  23.3 °C 43.9 °F /  6.6 °C 29.97in /  1014.8hPa NNW 6.9mph /  11.1km/h 7.0mph /  11.3km/h 34% 0.00in /  0mm 100.0 W/m2
16:23 73.4 °F /  23 °C 43.3 °F /  6.3 °C 29.97in /  1014.8hPa North 2.0mph /  3.2km/h 5.0mph /  8km/h 34% 0.00in /  0mm 86.0 W/m2
16:31 72.9 °F /  22.7 °C 43.5 °F /  6.4 °C 29.97in /  1014.8hPa Calm   2.0mph /  3.2km/h 35% 0.00in /  0mm 74.0 W/m2
16:37 72.5 °F /  22.5 °C 43.3 °F /  6.3 °C 29.97in /  1014.8hPa NE 4.9mph /  7.9km/h 5.0mph /  8km/h 35% 0.00in /  0mm 62.0 W/m2
16:57 71.8 °F /  22.1 °C 43.3 °F /  6.3 °C 29.98in /  1015.1hPa Calm   3.0mph /  4.8km/h 36% 0.00in /  0mm 30.0 W/m2
17:03 71.4 °F /  21.9 °C 43.2 °F /  6.2 °C 29.98in /  1015.1hPa Calm     36% 0.00in /  0mm 21.0 W/m2
17:10 71.1 °F /  21.7 °C 44.2 °F /  6.8 °C 29.98in /  1015.1hPa Calm     38% 0.00in /  0mm 14.0 W/m2
17:16 70.9 °F /  21.6 °C 44.1 °F /  6.7 °C 29.98in /  1015.1hPa NNW 0.9mph /  1.4km/h 1.0mph /  1.6km/h 38% 0.00in /  0mm 9.0 W/m2
17:22 70.5 °F /  21.4 °C 44.4 °F /  6.9 °C 29.98in /  1015.1hPa Calm     39% 0.00in /  0mm 0.0 W/m2
17:28 70.2 °F /  21.2 °C 44.1 °F /  6.7 °C 29.98in /  1015.1hPa Calm     39% 0.00in /  0mm 0.0 W/m2
17:34 70.0 °F /  21.1 °C 44.6 °F /  7 °C 29.99in /  1015.5hPa NNW 0.9mph /  1.4km/h 1.0mph /  1.6km/h 40% 0.00in /  0mm 0.0 W/m2
17:40 69.6 °F /  20.9 °C 44.2 °F /  6.8 °C 29.99in /  1015.5hPa Calm     40% 0.00in /  0mm 0.0 W/m2
17:46 69.4 °F /  20.8 °C 45.3 °F /  7.4 °C 29.99in /  1015.5hPa Calm     42% 0.00in /  0mm 0.0 W/m2
17:52 69.1 °F /  20.6 °C 45.7 °F /  7.6 °C 29.99in /  1015.5hPa Calm     43% 0.00in /  0mm 0.0 W/m2
17:59 68.7 °F /  20.4 °C 45.3 °F /  7.4 °C 30.00in /  1015.8hPa Calm     43% 0.00in /  0mm 0.0 W/m2
18:05 68.4 °F /  20.2 °C 45.7 °F /  7.6 °C 30.00in /  1015.8hPa Calm     44% 0.00in /  0mm 0.0 W/m2
18:11 67.8 °F /  19.9 °C 45.7 °F /  7.6 °C 30.00in /  1015.8hPa Calm     45% 0.00in /  0mm 0.0 W/m2
18:17 67.6 °F /  19.8 °C 45.5 °F /  7.5 °C 30.00in /  1015.8hPa Calm     45% 0.00in /  0mm 0.0 W/m2
18:23 67.3 °F /  19.6 °C 45.9 °F /  7.7 °C 30.00in /  1015.8hPa Calm     46% 0.00in /  0mm 0.0 W/m2
18:29 66.9 °F /  19.4 °C 46.0 °F /  7.8 °C 30.00in /  1015.8hPa Calm     47% 0.00in /  0mm 0.0 W/m2
18:35 66.6 °F /  19.2 °C 45.7 °F /  7.6 °C 30.01in /  1016.1hPa Calm     47% 0.00in /  0mm 0.0 W/m2
18:41 66.4 °F /  19.1 °C 45.5 °F /  7.5 °C 30.01in /  1016.1hPa Calm     47% 0.00in /  0mm 0.0 W/m2
18:47 66.0 °F /  18.9 °C 45.7 °F /  7.6 °C 30.01in /  1016.1hPa Calm     48% 0.00in /  0mm 0.0 W/m2
18:54 65.7 °F /  18.7 °C 46.0 °F /  7.8 °C 30.01in /  1016.1hPa Calm     49% 0.00in /  0mm 0.0 W/m2
19:00 65.5 °F /  18.6 °C 45.9 °F /  7.7 °C 30.01in /  1016.1hPa Calm     49% 0.00in /  0mm 0.0 W/m2
19:06 65.1 °F /  18.4 °C 46.6 °F /  8.1 °C 30.02in /  1016.5hPa Calm     51% 0.00in /  0mm 0.0 W/m2
19:12 64.9 °F /  18.3 °C 46.4 °F /  8 °C 30.02in /  1016.5hPa Calm     51% 0.00in /  0mm 0.0 W/m2
19:18 64.8 °F /  18.2 °C 46.2 °F /  7.9 °C 30.02in /  1016.5hPa Calm     51% 0.00in /  0mm 0.0 W/m2
19:24 64.6 °F /  18.1 °C 46.6 °F /  8.1 °C 30.02in /  1016.5hPa Calm     52% 0.00in /  0mm 0.0 W/m2
19:30 64.4 °F /  18 °C 46.4 °F /  8 °C 30.03in /  1016.8hPa Calm     52% 0.00in /  0mm 0.0 W/m2
19:37 64.2 °F /  17.9 °C 47.3 °F /  8.5 °C 30.03in /  1016.8hPa Calm   1.0mph /  1.6km/h 54% 0.00in /  0mm 0.0 W/m2
19:43 64.0 °F /  17.8 °C 47.1 °F /  8.4 °C 30.03in /  1016.8hPa Calm     54% 0.00in /  0mm 0.0 W/m2
19:49 63.9 °F /  17.7 °C 46.9 °F /  8.3 °C 30.03in /  1016.8hPa Calm   1.0mph /  1.6km/h 54% 0.00in /  0mm 0.0 W/m2
19:55 63.7 °F /  17.6 °C 47.3 °F /  8.5 °C 30.03in /  1016.8hPa Calm     55% 0.00in /  0mm 0.0 W/m2
20:01 63.7 °F /  17.6 °C 47.3 °F /  8.5 °C 30.03in /  1016.8hPa Calm     55% 0.00in /  0mm 0.0 W/m2
20:07 63.5 °F /  17.5 °C 47.1 °F /  8.4 °C 30.03in /  1016.8hPa Calm     55% 0.00in /  0mm 0.0 W/m2
20:13 63.5 °F /  17.5 °C 47.1 °F /  8.4 °C 30.03in /  1016.8hPa Calm   1.0mph /  1.6km/h 55% 0.00in /  0mm 0.0 W/m2
20:19 63.3 °F /  17.4 °C 46.9 °F /  8.3 °C 30.03in /  1016.8hPa Calm   1.0mph /  1.6km/h 55% 0.00in /  0mm 0.0 W/m2
20:26 63.3 °F /  17.4 °C 47.3 °F /  8.5 °C 30.03in /  1016.8hPa Calm   2.0mph /  3.2km/h 56% 0.00in /  0mm 0.0 W/m2
20:32 63.3 °F /  17.4 °C 47.3 °F /  8.5 °C 30.03in /  1016.8hPa Calm   1.0mph /  1.6km/h 56% 0.00in /  0mm 0.0 W/m2
20:38 63.3 °F /  17.4 °C 46.9 °F /  8.3 °C 30.03in /  1016.8hPa Calm     55% 0.00in /  0mm 0.0 W/m2
20:44 63.3 °F /  17.4 °C 47.3 °F /  8.5 °C 30.03in /  1016.8hPa Calm   2.0mph /  3.2km/h 56% 0.00in /  0mm 0.0 W/m2
20:50 63.1 °F /  17.3 °C 47.1 °F /  8.4 °C 30.03in /  1016.8hPa Calm   1.0mph /  1.6km/h 56% 0.00in /  0mm 0.0 W/m2
20:56 63.1 °F /  17.3 °C 47.1 °F /  8.4 °C 30.03in /  1016.8hPa Calm     56% 0.00in /  0mm 0.0 W/m2
21:02 63.0 °F /  17.2 °C 46.9 °F /  8.3 °C 30.03in /  1016.8hPa Calm     56% 0.00in /  0mm 0.0 W/m2
21:08 63.0 °F /  17.2 °C 46.9 °F /  8.3 °C 30.03in /  1016.8hPa Calm     56% 0.00in /  0mm 0.0 W/m2
21:15 62.8 °F /  17.1 °C 46.9 °F /  8.3 °C 30.03in /  1016.8hPa NE 0.9mph /  1.4km/h 1.0mph /  1.6km/h 56% 0.00in /  0mm 0.0 W/m2
21:21 62.8 °F /  17.1 °C 46.9 °F /  8.3 °C 30.03in /  1016.8hPa Calm   1.0mph /  1.6km/h 56% 0.00in /  0mm 0.0 W/m2
21:27 62.6 °F /  17 °C 46.8 °F /  8.2 °C 30.03in /  1016.8hPa Calm   1.0mph /  1.6km/h 56% 0.00in /  0mm 0.0 W/m2
21:33 62.4 °F /  16.9 °C 46.9 °F /  8.3 °C 30.02in /  1016.5hPa SE 0.9mph /  1.4km/h 2.0mph /  3.2km/h 57% 0.00in /  0mm 0.0 W/m2
21:39 62.4 °F /  16.9 °C 47.5 °F /  8.6 °C 30.02in /  1016.5hPa Calm   3.0mph /  4.8km/h 58% 0.00in /  0mm 0.0 W/m2
21:45 62.2 °F /  16.8 °C 47.3 °F /  8.5 °C 30.03in /  1016.8hPa ESE 0.9mph /  1.4km/h 1.0mph /  1.6km/h 58% 0.00in /  0mm 0.0 W/m2
21:52 62.1 °F /  16.7 °C 47.5 °F /  8.6 °C 30.03in /  1016.8hPa Calm   2.0mph /  3.2km/h 59% 0.00in /  0mm 0.0 W/m2
21:58 61.9 °F /  16.6 °C 47.8 °F /  8.8 °C 30.03in /  1016.8hPa Calm   3.0mph /  4.8km/h 60% 0.00in /  0mm 0.0 W/m2
22:04 61.3 °F /  16.3 °C 47.3 °F /  8.5 °C 30.03in /  1016.8hPa ESE 0.9mph /  1.4km/h 1.0mph /  1.6km/h 60% 0.00in /  0mm 0.0 W/m2
22:10 61.2 °F /  16.2 °C 47.7 °F /  8.7 °C 30.03in /  1016.8hPa Calm     61% 0.00in /  0mm 0.0 W/m2
22:16 61.0 °F /  16.1 °C 47.5 °F /  8.6 °C 30.03in /  1016.8hPa Calm   1.0mph /  1.6km/h 61% 0.00in /  0mm 0.0 W/m2
22:22 60.6 °F /  15.9 °C 46.6 °F /  8.1 °C 30.03in /  1016.8hPa Calm   1.0mph /  1.6km/h 60% 0.00in /  0mm 0.0 W/m2
22:28 60.4 °F /  15.8 °C 46.9 °F /  8.3 °C 30.03in /  1016.8hPa ENE 0.9mph /  1.4km/h 3.0mph /  4.8km/h 61% 0.00in /  0mm 0.0 W/m2
22:35 60.3 °F /  15.7 °C 47.1 °F /  8.4 °C 30.03in /  1016.8hPa East 0.9mph /  1.4km/h 4.0mph /  6.4km/h 62% 0.00in /  0mm 0.0 W/m2
22:41 60.1 °F /  15.6 °C 46.6 °F /  8.1 °C 30.02in /  1016.5hPa ENE 2.9mph /  4.7km/h 3.0mph /  4.8km/h 61% 0.00in /  0mm 0.0 W/m2
22:47 59.9 °F /  15.5 °C 46.4 °F /  8 °C 30.02in /  1016.5hPa ENE 0.9mph /  1.4km/h 4.0mph /  6.4km/h 61% 0.00in /  0mm 0.0 W/m2
22:53 59.7 °F /  15.4 °C 46.8 °F /  8.2 °C 30.02in /  1016.5hPa East 0.9mph /  1.4km/h 2.0mph /  3.2km/h 62% 0.00in /  0mm 0.0 W/m2
22:59 59.5 °F /  15.3 °C 46.6 °F /  8.1 °C 30.02in /  1016.5hPa NE 0.9mph /  1.4km/h 3.0mph /  4.8km/h 62% 0.00in /  0mm 0.0 W/m2
23:05 59.4 °F /  15.2 °C 46.4 °F /  8 °C 30.02in /  1016.5hPa ESE 0.9mph /  1.4km/h 4.0mph /  6.4km/h 62% 0.00in /  0mm 0.0 W/m2
23:11 59.4 °F /  15.2 °C 46.4 °F /  8 °C 30.02in /  1016.5hPa NE 2.0mph /  3.2km/h 3.0mph /  4.8km/h 62% 0.00in /  0mm 0.0 W/m2
23:17 59.2 °F /  15.1 °C 46.2 °F /  7.9 °C 30.02in /  1016.5hPa East 0.9mph /  1.4km/h 4.0mph /  6.4km/h 62% 0.00in /  0mm 0.0 W/m2
23:23 58.8 °F /  14.9 °C 46.2 °F /  7.9 °C 30.02in /  1016.5hPa ENE 4.0mph /  6.4km/h 4.0mph /  6.4km/h 63% 0.00in /  0mm 0.0 W/m2
23:29 58.6 °F /  14.8 °C 46.0 °F /  7.8 °C 30.02in /  1016.5hPa Calm   1.0mph /  1.6km/h 63% 0.00in /  0mm 0.0 W/m2
23:35 58.5 °F /  14.7 °C 45.9 °F /  7.7 °C 30.01in /  1016.1hPa Calm   3.0mph /  4.8km/h 63% 0.00in /  0mm 0.0 W/m2
23:42 58.3 °F /  14.6 °C 45.7 °F /  7.6 °C 30.01in /  1016.1hPa Calm   1.0mph /  1.6km/h 63% 0.00in /  0mm 0.0 W/m2
23:48 58.1 °F /  14.5 °C 45.5 °F /  7.5 °C 30.01in /  1016.1hPa Calm   1.0mph /  1.6km/h 63% 0.00in /  0mm 0.0 W/m2
23:54 57.9 °F /  14.4 °C 45.3 °F /  7.4 °C 30.01in /  1016.1hPa Calm   3.0mph /  4.8km/h 63% 0.00in /  0mm 0.0 W/m2
Olympia, Windhoek, Namibia
Compliments of Weather Underground - 3 mb